Terminal Aerodrome Forecast
Issued by NWS Sioux Falls, SD

Home | Current Version | Previous Version | Graphics & Text | Print | Product List | Glossary On
Versions: 1 2 3 4 5 6 7 8 9 10 11 12 13 14
000
FTUS43 KFSD 151100
TAFHON
TAF
KHON 151126Z 1512/1612 17008KT P6SM FEW150
     FM151800 17016G23KT P6SM BKN110
     FM160100 14015G22KT P6SM OVC090
     FM161000 06010KT P6SM SCT040 OVC090=

USA.gov is the U.S. government's official web portal to all federal, state and local government web resources and services.